createdAt,value
2019-03-21T00:00:50.261Z,68.47
2019-03-21T00:03:21.887Z,68.58
2019-03-21T00:05:52.552Z,68.68
2019-03-21T00:08:24.188Z,68.69
2019-03-21T00:11:45.803Z,68.74
2019-03-21T00:14:37.949Z,68.83
2019-03-21T00:17:08.667Z,68.78
2019-03-21T00:19:39.420Z,68.78
2019-03-21T00:22:10.095Z,68.86
2019-03-21T00:24:40.765Z,68.89
2019-03-21T00:27:11.534Z,68.90
2019-03-21T00:29:42.190Z,68.95
2019-03-21T00:32:12.951Z,68.84
2019-03-21T00:34:43.614Z,68.84
2019-03-21T00:37:14.284Z,68.94
2019-03-21T00:39:45.039Z,68.99
2019-03-21T00:42:15.712Z,69.13
2019-03-21T00:44:46.401Z,69.39
2019-03-21T00:47:17.066Z,69.34
2019-03-21T00:49:47.725Z,69.34
2019-03-21T00:52:18.478Z,69.21
2019-03-21T00:54:49.156Z,69.29
2019-03-21T00:57:19.870Z,69.65
2019-03-21T00:59:50.531Z,69.67
2019-03-21T01:02:21.205Z,69.59
2019-03-21T01:04:51.888Z,69.91
2019-03-21T01:07:22.531Z,69.93
2019-03-21T01:09:53.212Z,69.90
2019-03-21T01:12:23.883Z,69.96
2019-03-21T01:14:54.532Z,69.91
2019-03-21T01:17:25.204Z,69.89
2019-03-21T01:19:55.889Z,69.72
2019-03-21T01:22:26.630Z,69.74
2019-03-21T01:24:57.296Z,69.70
2019-03-21T01:27:27.970Z,69.74
2019-03-21T01:29:58.650Z,69.87
2019-03-21T01:32:29.301Z,69.94
2019-03-21T01:35:00.012Z,69.91
2019-03-21T01:37:30.669Z,70.10
2019-03-21T01:40:01.330Z,70.07
2019-03-21T01:42:31.978Z,70.21
2019-03-21T01:45:02.649Z,70.10
2019-03-21T01:47:33.309Z,70.16
2019-03-21T01:50:04.133Z,70.34
2019-03-21T01:52:34.776Z,70.47
2019-03-21T01:55:05.884Z,70.54
2019-03-21T01:57:36.556Z,70.54
2019-03-21T02:00:10.150Z,70.64
2019-03-21T02:02:40.921Z,70.67
2019-03-21T02:05:11.880Z,70.56
2019-03-21T02:07:42.530Z,70.66
2019-03-21T02:10:14.774Z,70.65
2019-03-21T02:12:45.429Z,70.57
2019-03-21T02:15:16.309Z,70.61
2019-03-21T02:17:47.023Z,70.60
2019-03-21T02:20:17.754Z,70.55
2019-03-21T02:22:48.426Z,70.59
2019-03-21T02:25:24.428Z,70.58
2019-03-21T02:27:55.096Z,70.57
2019-03-21T02:30:30.790Z,70.56
2019-03-21T02:33:04.893Z,70.62
2019-03-21T02:35:35.628Z,70.84
2019-03-21T02:38:06.391Z,70.81
2019-03-21T02:40:37.082Z,70.79
2019-03-21T02:43:07.753Z,70.87
2019-03-21T02:45:38.454Z,70.99
2019-03-21T02:48:09.157Z,71.60
2019-03-21T02:50:39.850Z,71.53
2019-03-21T02:53:10.515Z,71.30
2019-03-21T02:55:41.243Z,71.31
2019-03-21T02:58:11.925Z,71.44
2019-03-21T03:00:42.620Z,71.40
2019-03-21T03:03:14.429Z,71.29
2019-03-21T03:05:45.089Z,71.06
2019-03-21T03:08:15.752Z,70.95
2019-03-21T03:10:48.515Z,71.48
2019-03-21T03:13:19.179Z,71.30
2019-03-21T03:15:50.925Z,71.13
2019-03-21T03:18:21.608Z,70.97
2019-03-21T03:20:52.275Z,70.81
2019-03-21T03:23:22.924Z,70.66
2019-03-21T03:25:53.668Z,70.52
2019-03-21T03:28:25.611Z,70.50
2019-03-21T03:30:56.771Z,70.68
2019-03-21T03:33:27.469Z,70.87
2019-03-21T03:35:58.190Z,70.79
2019-03-21T03:38:28.920Z,70.95
2019-03-21T03:41:00.404Z,70.97
2019-03-21T03:43:31.120Z,71.07
2019-03-21T03:46:01.824Z,71.22
2019-03-21T03:48:32.515Z,71.18
2019-03-21T03:51:03.157Z,71.10
2019-03-21T03:53:33.832Z,70.98
2019-03-21T03:56:04.606Z,71.04
2019-03-21T03:58:35.889Z,70.98
2019-03-21T04:01:06.678Z,71.23
2019-03-21T04:03:37.339Z,71.38
2019-03-21T04:06:08.170Z,71.42
2019-03-21T04:08:38.849Z,71.41
2019-03-21T04:11:09.520Z,71.29
2019-03-21T04:13:40.169Z,71.45
2019-03-21T04:16:11.856Z,71.15
2019-03-21T04:18:42.505Z,70.93
2019-03-21T04:21:13.385Z,70.92
2019-03-21T04:23:44.030Z,70.97
2019-03-21T04:26:18.419Z,70.86
2019-03-21T04:28:49.075Z,70.76
2019-03-21T04:31:19.813Z,70.96
2019-03-21T04:33:51.176Z,71.12
2019-03-21T04:36:21.846Z,71.30
2019-03-21T04:38:52.545Z,71.23
2019-03-21T04:41:23.250Z,71.14
2019-03-21T04:43:53.910Z,71.18
2019-03-21T04:46:24.617Z,71.51
2019-03-21T04:48:55.311Z,71.76
2019-03-21T04:51:25.945Z,71.84
2019-03-21T04:53:57.598Z,71.62
2019-03-21T04:56:28.319Z,71.90
2019-03-21T04:58:59.027Z,71.60
2019-03-21T05:01:29.683Z,71.43
2019-03-21T05:04:00.370Z,71.31
2019-03-21T05:06:32.911Z,71.33
2019-03-21T05:09:05.259Z,71.16
2019-03-21T05:11:35.945Z,71.18
2019-03-21T05:14:06.630Z,71.39
2019-03-21T05:16:37.332Z,71.68
2019-03-21T05:19:08.004Z,71.21
2019-03-21T05:21:38.794Z,70.69
2019-03-21T05:24:09.631Z,70.42
2019-03-21T05:26:40.303Z,70.35
2019-03-21T05:29:10.980Z,70.73
2019-03-21T05:31:41.846Z,70.09
2019-03-21T05:34:13.152Z,70.83
2019-03-21T05:36:43.839Z,70.25
2019-03-21T05:39:14.501Z,70.46
2019-03-21T05:41:46.104Z,70.43
2019-03-21T05:44:24.474Z,70.74
2019-03-21T05:46:55.153Z,71.13
2019-03-21T05:49:25.875Z,71.12
2019-03-21T05:51:57.318Z,71.34
2019-03-21T05:54:27.977Z,70.67
2019-03-21T05:56:59.597Z,71.05
2019-03-21T05:59:30.710Z,70.63
2019-03-21T06:02:01.401Z,70.85
2019-03-21T06:04:32.126Z,70.91
2019-03-21T06:07:13.705Z,70.27
2019-03-21T06:09:44.480Z,70.88
2019-03-21T06:12:15.138Z,70.33
2019-03-21T06:14:50.961Z,70.32
2019-03-21T06:17:21.745Z,70.21
2019-03-21T06:20:41.020Z,71.13
2019-03-21T06:23:27.964Z,70.67
2019-03-21T06:26:27.356Z,70.11
2019-03-21T06:28:58.037Z,69.12
2019-03-21T06:31:28.687Z,68.90
2019-03-21T06:33:59.351Z,68.54
2019-03-21T06:36:30.020Z,69.19
2019-03-21T06:39:00.700Z,69.37
2019-03-21T06:41:32.959Z,68.13
2019-03-21T06:44:03.710Z,69.38
2019-03-21T06:46:34.369Z,68.26
2019-03-21T06:49:05.052Z,69.44
2019-03-21T06:51:35.706Z,70.24
2019-03-21T06:54:06.484Z,70.27
2019-03-21T06:56:37.145Z,69.38
2019-03-21T06:59:07.837Z,68.46
2019-03-21T07:01:38.494Z,68.70
2019-03-21T07:04:09.168Z,70.41
2019-03-21T07:06:39.842Z,69.27
2019-03-21T07:09:10.526Z,69.64
2019-03-21T07:11:41.178Z,69.60
2019-03-21T07:14:11.875Z,67.96
2019-03-21T07:16:42.529Z,67.09
2019-03-21T07:19:13.193Z,66.72
2019-03-21T07:21:43.865Z,66.97
2019-03-21T07:24:14.510Z,67.37
2019-03-21T07:26:45.158Z,67.62
2019-03-21T07:29:15.827Z,65.91
2019-03-21T07:31:46.475Z,66.96
2019-03-21T07:34:17.122Z,67.28
2019-03-21T07:36:47.784Z,66.69
2019-03-21T07:39:18.455Z,66.88
2019-03-21T07:41:49.096Z,67.24
2019-03-21T07:44:19.738Z,67.85
2019-03-21T07:46:50.393Z,66.88
2019-03-21T07:49:21.133Z,67.42
2019-03-21T07:51:51.794Z,67.11
2019-03-21T07:54:22.447Z,66.79
2019-03-21T07:56:53.113Z,66.58
2019-03-21T07:59:23.823Z,65.97
2019-03-21T08:01:54.483Z,66.12
2019-03-21T08:04:26.171Z,67.21
2019-03-21T08:06:56.827Z,66.25
2019-03-21T08:09:27.595Z,68.73
2019-03-21T08:11:58.232Z,67.08
2019-03-21T08:14:28.936Z,65.88
2019-03-21T08:16:59.579Z,66.27
2019-03-21T08:19:30.253Z,65.86
2019-03-21T08:22:00.910Z,66.00
2019-03-21T08:24:31.588Z,64.88
2019-03-21T08:27:02.238Z,64.66
2019-03-21T08:29:32.896Z,64.57
2019-03-21T08:32:03.550Z,65.60
2019-03-21T08:34:34.193Z,66.22
2019-03-21T08:37:04.849Z,63.92
2019-03-21T08:39:35.551Z,62.44
2019-03-21T08:42:06.201Z,62.87
2019-03-21T08:44:36.871Z,65.50
2019-03-21T08:47:07.530Z,63.04
2019-03-21T08:49:38.303Z,63.75
2019-03-21T08:52:08.999Z,63.36
2019-03-21T08:54:39.666Z,65.46
2019-03-21T08:57:10.312Z,64.79
2019-03-21T08:59:41.016Z,64.35
2019-03-21T09:02:11.676Z,63.15
2019-03-21T09:04:42.342Z,62.63
2019-03-21T09:07:13.036Z,64.24
2019-03-21T09:09:43.685Z,64.24
2019-03-21T09:12:14.365Z,62.38
2019-03-21T09:14:45.016Z,61.41
2019-03-21T09:17:15.686Z,61.93
2019-03-21T09:19:46.390Z,61.19
2019-03-21T09:22:17.041Z,59.71
2019-03-21T09:24:47.700Z,60.51
2019-03-21T09:27:18.388Z,63.43
2019-03-21T09:29:53.554Z,62.04
2019-03-21T09:32:21.513Z,60.79
2019-03-21T09:34:52.283Z,59.90
2019-03-21T09:37:22.953Z,60.51
2019-03-21T09:39:53.607Z,59.50
2019-03-21T09:42:24.253Z,59.99
2019-03-21T09:44:54.916Z,59.00
2019-03-21T09:47:25.568Z,59.80
2019-03-21T09:49:56.249Z,59.55
2019-03-21T09:52:26.906Z,58.94
2019-03-21T09:54:57.586Z,59.16
2019-03-21T09:57:28.226Z,60.94
2019-03-21T09:59:59.048Z,59.78
2019-03-21T10:02:29.747Z,59.71
2019-03-21T10:05:00.400Z,59.99
2019-03-21T10:07:31.068Z,61.03
2019-03-21T10:10:01.738Z,61.86
2019-03-21T10:12:32.520Z,60.22
2019-03-21T10:15:03.206Z,59.78
2019-03-21T10:17:33.889Z,58.68
2019-03-21T10:20:04.787Z,59.39
2019-03-21T10:22:35.458Z,59.09
2019-03-21T10:25:06.575Z,59.76
2019-03-21T10:27:37.244Z,59.81
2019-03-21T10:30:08.447Z,60.08
2019-03-21T10:32:39.100Z,58.68
2019-03-21T10:35:09.772Z,60.17
2019-03-21T10:37:41.501Z,60.25
2019-03-21T10:40:12.192Z,60.99
2019-03-21T10:42:42.870Z,60.25
2019-03-21T10:45:13.548Z,58.90
2019-03-21T10:47:44.200Z,59.36
2019-03-21T10:50:18.056Z,59.59
2019-03-21T10:52:48.702Z,60.63
2019-03-21T10:55:19.385Z,60.59
2019-03-21T10:57:50.055Z,59.85
2019-03-21T11:00:21.878Z,60.60
2019-03-21T11:02:52.549Z,60.73
2019-03-21T11:05:23.491Z,61.32
2019-03-21T11:07:54.153Z,60.72
2019-03-21T11:10:24.837Z,60.63
2019-03-21T11:12:55.490Z,60.51
2019-03-21T11:15:26.166Z,61.26
2019-03-21T11:17:57.072Z,60.70
2019-03-21T11:20:38.869Z,61.67
2019-03-21T11:23:09.862Z,60.79
2019-03-21T11:25:40.532Z,61.15
2019-03-21T11:28:11.506Z,60.48
2019-03-21T11:30:43.866Z,61.26
2019-03-21T11:33:14.513Z,61.42
2019-03-21T11:35:45.181Z,61.89
2019-03-21T11:38:15.844Z,62.38
2019-03-21T11:40:48.545Z,61.67
2019-03-21T11:43:20.245Z,61.52
2019-03-21T11:45:50.907Z,60.79
2019-03-21T11:48:21.545Z,61.56
2019-03-21T11:50:52.231Z,60.65
2019-03-21T11:53:22.877Z,61.08
2019-03-21T11:55:54.532Z,60.95
2019-03-21T11:58:25.199Z,61.82
2019-03-21T12:00:55.948Z,61.65
2019-03-21T12:03:26.646Z,60.89
2019-03-21T12:05:57.320Z,61.38
2019-03-21T12:08:27.979Z,60.52
2019-03-21T12:10:58.648Z,60.61
2019-03-21T12:13:29.315Z,61.64
2019-03-21T12:15:59.992Z,61.26
2019-03-21T12:18:30.632Z,60.06
2019-03-21T12:21:01.282Z,60.21
2019-03-21T12:23:31.931Z,59.59
2019-03-21T12:26:02.592Z,60.29
2019-03-21T12:28:33.276Z,60.10
2019-03-21T12:31:04.038Z,60.57
2019-03-21T12:33:35.672Z,60.23
2019-03-21T12:36:06.342Z,60.77
2019-03-21T12:38:37.073Z,60.84
2019-03-21T12:41:07.763Z,59.84
2019-03-21T12:43:38.451Z,59.81
2019-03-21T12:46:09.110Z,59.22
2019-03-21T12:48:39.773Z,59.31
2019-03-21T12:51:10.805Z,59.17
2019-03-21T12:53:41.587Z,59.16
2019-03-21T12:56:12.274Z,59.89
2019-03-21T12:58:42.943Z,59.00
2019-03-21T13:01:13.628Z,59.66
2019-03-21T13:03:44.287Z,59.08
2019-03-21T13:06:14.980Z,60.26
2019-03-21T13:08:45.625Z,59.87
2019-03-21T13:11:16.281Z,59.11
2019-03-21T13:13:46.946Z,59.47
2019-03-21T13:16:17.614Z,59.16
2019-03-21T13:18:48.259Z,58.14
2019-03-21T13:21:18.932Z,58.31
2019-03-21T13:23:49.600Z,58.43
2019-03-21T13:26:20.267Z,59.56
2019-03-21T13:28:50.921Z,59.28
2019-03-21T13:31:21.610Z,58.95
2019-03-21T13:33:52.263Z,59.23
2019-03-21T13:36:22.929Z,58.68
2019-03-21T13:38:53.580Z,58.79
2019-03-21T13:41:24.257Z,58.16
2019-03-21T13:43:54.929Z,58.88
2019-03-21T13:46:25.601Z,58.95
2019-03-21T13:48:56.257Z,58.55
2019-03-21T13:51:26.939Z,58.55
2019-03-21T13:53:57.595Z,58.18
2019-03-21T13:56:37.793Z,58.85
2019-03-21T13:59:00.743Z,59.18
2019-03-21T14:01:31.605Z,58.59
2019-03-21T14:04:02.280Z,58.21
2019-03-21T14:06:32.960Z,58.57
2019-03-21T14:09:05.061Z,58.61
2019-03-21T14:11:35.819Z,58.49
2019-03-21T14:14:06.475Z,59.23
2019-03-21T14:16:37.149Z,58.81
2019-03-21T14:19:07.803Z,59.24
2019-03-21T14:21:38.465Z,58.13
2019-03-21T14:24:09.109Z,59.06
2019-03-21T14:26:39.769Z,58.78
2019-03-21T14:29:12.948Z,58.59
2019-03-21T14:31:42.839Z,58.39
2019-03-21T14:34:13.510Z,58.61
2019-03-21T14:36:44.181Z,58.85
2019-03-21T14:39:14.836Z,59.11
2019-03-21T14:41:45.501Z,59.24
2019-03-21T14:44:16.152Z,59.02
2019-03-21T14:46:46.812Z,59.31
2019-03-21T14:49:17.455Z,59.57
2019-03-21T14:51:48.122Z,59.60
2019-03-21T14:54:18.783Z,59.62
2019-03-21T14:56:49.464Z,59.74
2019-03-21T14:59:20.119Z,59.87
2019-03-21T15:01:50.800Z,60.12
2019-03-21T15:04:21.463Z,60.14
2019-03-21T15:06:52.125Z,60.19
2019-03-21T15:09:22.800Z,60.09
2019-03-21T15:11:53.656Z,60.31
2019-03-21T15:14:24.403Z,60.67
2019-03-21T15:16:55.048Z,60.27
2019-03-21T15:19:25.722Z,60.27
2019-03-21T15:21:56.403Z,60.81
2019-03-21T15:24:29.056Z,61.16
2019-03-21T15:26:59.726Z,61.32
2019-03-21T15:29:30.396Z,61.43
2019-03-21T15:32:01.125Z,61.65
2019-03-21T15:34:31.800Z,61.30
2019-03-21T15:37:02.483Z,61.66
2019-03-21T15:39:33.151Z,61.71
2019-03-21T15:42:03.911Z,61.70
2019-03-21T15:44:34.569Z,61.74
2019-03-21T15:47:05.329Z,61.90
2019-03-21T15:49:36.012Z,62.03
2019-03-21T15:52:06.762Z,62.18
2019-03-21T15:54:37.529Z,62.34
2019-03-21T15:57:08.211Z,62.26
2019-03-21T15:59:39.012Z,62.34
2019-03-21T16:02:09.715Z,62.66
2019-03-21T16:04:40.382Z,62.60
2019-03-21T16:07:11.069Z,62.53
2019-03-21T16:09:41.725Z,62.72
2019-03-21T16:12:12.404Z,62.84
2019-03-21T16:14:43.045Z,63.01
2019-03-21T16:17:13.831Z,63.27
2019-03-21T16:19:44.544Z,63.57
2019-03-21T16:22:15.165Z,63.56
2019-03-21T16:24:46.008Z,63.79
2019-03-21T16:27:17.110Z,64.07
2019-03-21T16:29:47.799Z,64.10
2019-03-21T16:32:18.480Z,64.18
2019-03-21T16:34:49.164Z,64.26
2019-03-21T16:37:19.861Z,64.59
2019-03-21T16:39:50.493Z,64.83
2019-03-21T16:42:21.215Z,64.82
2019-03-21T16:44:51.891Z,64.96
2019-03-21T16:47:22.573Z,64.94
2019-03-21T16:49:53.279Z,65.21
2019-03-21T16:52:24.034Z,65.20
2019-03-21T16:54:55.206Z,65.35
2019-03-21T16:57:26.201Z,65.47
2019-03-21T16:59:57.058Z,65.50
2019-03-21T17:02:27.771Z,65.52
2019-03-21T17:04:58.680Z,65.67
2019-03-21T17:07:29.457Z,65.77
2019-03-21T17:10:00.487Z,65.85
2019-03-21T17:12:31.245Z,66.28
2019-03-21T17:15:02.113Z,66.28
2019-03-21T17:17:32.783Z,66.39
2019-03-21T17:20:03.934Z,66.45
2019-03-21T17:22:34.676Z,66.87
2019-03-21T17:25:05.746Z,66.52
2019-03-21T17:27:36.425Z,66.54
2019-03-21T17:30:07.888Z,66.72
2019-03-21T17:32:38.580Z,66.81
2019-03-21T17:35:09.280Z,66.88
2019-03-21T17:37:40.211Z,67.10
2019-03-21T17:40:11.152Z,67.04
2019-03-21T17:42:41.919Z,67.65
2019-03-21T17:45:15.171Z,67.41
2019-03-21T17:47:45.999Z,67.39
2019-03-21T17:50:18.092Z,67.16
2019-03-21T17:52:49.036Z,67.34
2019-03-21T17:55:19.731Z,67.42
2019-03-21T17:57:50.395Z,67.58
2019-03-21T18:00:22.823Z,67.74
2019-03-21T18:02:53.709Z,67.73
2019-03-21T18:05:24.392Z,67.81
2019-03-21T18:07:55.090Z,67.86
2019-03-21T18:10:30.090Z,67.80
2019-03-21T18:13:01.165Z,67.79
2019-03-21T18:15:31.803Z,68.00
2019-03-21T18:18:02.631Z,68.09
2019-03-21T18:20:33.681Z,68.20
2019-03-21T18:23:04.428Z,68.22
2019-03-21T18:25:35.147Z,68.36
2019-03-21T18:28:08.599Z,68.45
2019-03-21T18:30:38.308Z,68.63
2019-03-21T18:33:09.005Z,68.75
2019-03-21T18:35:39.677Z,68.83
2019-03-21T18:38:10.358Z,68.88
2019-03-21T18:40:41.031Z,68.93
2019-03-21T18:43:11.730Z,69.31
2019-03-21T18:45:42.402Z,69.41
2019-03-21T18:48:13.150Z,69.51
2019-03-21T18:50:43.789Z,69.55
2019-03-21T18:53:14.443Z,69.77
2019-03-21T18:55:45.128Z,69.77
2019-03-21T18:58:15.853Z,69.71
2019-03-21T19:00:46.517Z,69.89
2019-03-21T19:03:17.231Z,70.11
2019-03-21T19:05:47.919Z,70.04
2019-03-21T19:08:18.594Z,70.34
2019-03-21T19:10:49.266Z,70.40
2019-03-21T19:13:19.975Z,70.33
2019-03-21T19:15:50.633Z,70.37
2019-03-21T19:18:21.332Z,70.47
2019-03-21T19:20:52.093Z,70.70
2019-03-21T19:23:22.761Z,70.63
2019-03-21T19:25:53.458Z,70.69
2019-03-21T19:28:24.300Z,70.65
2019-03-21T19:30:54.984Z,70.80
2019-03-21T19:33:25.666Z,70.94
2019-03-21T19:35:56.336Z,71.01
2019-03-21T19:38:27.026Z,70.96
2019-03-21T19:40:57.806Z,71.06
2019-03-21T19:43:28.495Z,71.21
2019-03-21T19:45:59.300Z,71.46
2019-03-21T19:48:30.069Z,71.28
2019-03-21T19:51:00.751Z,71.49
2019-03-21T19:53:32.078Z,71.38
2019-03-21T19:56:08.440Z,71.47
2019-03-21T19:58:35.102Z,71.41
2019-03-21T20:01:06.475Z,71.50
2019-03-21T20:03:37.218Z,72.35
2019-03-21T20:06:07.893Z,72.60
2019-03-21T20:08:39.013Z,72.47
2019-03-21T20:11:10.598Z,72.62
2019-03-21T20:13:42.069Z,72.69
2019-03-21T20:16:13.031Z,72.51
2019-03-21T20:18:43.885Z,72.17
2019-03-21T20:21:14.686Z,72.23
2019-03-21T20:23:45.421Z,72.09
2019-03-21T20:26:16.173Z,72.59
2019-03-21T20:28:46.895Z,72.39
2019-03-21T20:31:17.591Z,72.19
2019-03-21T20:33:48.265Z,72.48
2019-03-21T20:36:18.939Z,72.17
2019-03-21T20:38:49.678Z,72.15
2019-03-21T20:41:20.346Z,71.71
2019-03-21T20:43:51.110Z,71.76
2019-03-21T20:46:21.777Z,72.05
2019-03-21T20:48:50.399Z,72.02
2019-03-21T20:51:21.094Z,71.78
2019-03-21T20:53:51.783Z,71.39
2019-03-21T20:56:22.450Z,71.14
2019-03-21T20:58:53.674Z,70.99
2019-03-21T21:01:24.458Z,71.06
2019-03-21T21:03:55.234Z,71.04
2019-03-21T21:06:25.919Z,70.98
2019-03-21T21:08:56.602Z,70.68
2019-03-21T21:11:27.301Z,69.95
2019-03-21T21:13:58.042Z,70.25
2019-03-21T21:16:28.694Z,70.09
2019-03-21T21:18:59.359Z,69.85
2019-03-21T21:21:30.119Z,69.91
2019-03-21T21:24:01.069Z,69.03
2019-03-21T21:26:33.188Z,68.71
2019-03-21T21:29:04.310Z,68.76
2019-03-21T21:31:34.972Z,68.55
2019-03-21T21:34:06.223Z,68.00
2019-03-21T21:36:37.422Z,68.05
2019-03-21T21:39:09.082Z,67.97
2019-03-21T21:41:39.848Z,67.90
2019-03-21T21:44:10.551Z,67.76
2019-03-21T21:46:41.277Z,67.80
2019-03-21T21:49:13.120Z,67.88
2019-03-21T21:51:43.921Z,67.79
2019-03-21T21:54:14.616Z,67.94
2019-03-21T21:56:45.260Z,68.11
2019-03-21T21:59:15.923Z,68.08
2019-03-21T22:01:46.612Z,68.08
2019-03-21T22:04:17.283Z,68.27
2019-03-21T22:06:47.962Z,68.20
2019-03-21T22:09:18.656Z,68.40
2019-03-21T22:11:49.327Z,68.55
2019-03-21T22:14:20.023Z,68.62
2019-03-21T22:16:50.679Z,68.79
2019-03-21T22:19:21.434Z,68.95
2019-03-21T22:21:52.193Z,69.26
2019-03-21T22:24:22.937Z,69.44
2019-03-21T22:26:53.658Z,69.42
2019-03-21T22:29:24.346Z,69.76
2019-03-21T22:31:55.048Z,70.37
2019-03-21T22:34:25.746Z,70.75
2019-03-21T22:36:56.466Z,70.88
2019-03-21T22:39:27.148Z,70.90
2019-03-21T22:41:57.794Z,70.90
2019-03-21T22:44:28.483Z,70.89
2019-03-21T22:46:59.144Z,70.85
2019-03-21T22:49:29.829Z,70.78
2019-03-21T22:52:00.487Z,70.58
2019-03-21T22:54:31.168Z,70.45
2019-03-21T22:57:02.893Z,70.58
2019-03-21T22:59:33.547Z,70.76
2019-03-21T23:02:04.782Z,70.98
2019-03-21T23:04:35.485Z,71.06
2019-03-21T23:07:06.140Z,71.25
2019-03-21T23:09:36.817Z,70.97
2019-03-21T23:12:07.474Z,70.69
2019-03-21T23:14:38.157Z,70.63
2019-03-21T23:17:08.819Z,70.80
2019-03-21T23:19:39.520Z,70.92
2019-03-21T23:22:10.205Z,71.10
2019-03-21T23:24:40.858Z,71.47
2019-03-21T23:27:11.520Z,72.14
2019-03-21T23:29:42.186Z,72.40
2019-03-21T23:32:12.925Z,72.82
2019-03-21T23:34:43.846Z,73.06
2019-03-21T23:37:14.527Z,73.61
2019-03-21T23:39:45.216Z,73.36
2019-03-21T23:42:15.871Z,73.41
2019-03-21T23:44:46.533Z,73.36
2019-03-21T23:47:17.195Z,73.42
2019-03-21T23:49:47.853Z,73.82
2019-03-21T23:52:18.506Z,74.07
2019-03-21T23:54:49.180Z,74.01
2019-03-21T23:57:19.861Z,73.73
2019-03-21T23:59:50.517Z,73.53
